createdAt,value
2022-12-01T00:00:23.437Z,26.50
2022-12-01T00:00:53.998Z,28.30
2022-12-01T00:01:24.565Z,26.80
2022-12-01T00:01:55.317Z,25.50
2022-12-01T00:02:26.159Z,30.40
2022-12-01T00:02:56.954Z,26.30
2022-12-01T00:03:27.634Z,27.50
2022-12-01T00:03:58.195Z,27.70
2022-12-01T00:04:28.802Z,29.50
2022-12-01T00:04:59.359Z,26.50
2022-12-01T00:05:29.934Z,28.00
2022-12-01T00:06:00.514Z,28.40
2022-12-01T00:06:31.085Z,29.10
2022-12-01T00:07:01.642Z,32.10
2022-12-01T00:07:32.245Z,27.10
2022-12-01T00:08:02.862Z,29.30
2022-12-01T00:08:33.407Z,32.50
2022-12-01T00:09:03.970Z,25.20
2022-12-01T00:09:34.547Z,28.90
2022-12-01T00:10:05.121Z,29.60
2022-12-01T00:10:35.707Z,27.60
2022-12-01T00:11:06.287Z,31.20
2022-12-01T00:11:36.858Z,28.80
2022-12-01T00:12:07.436Z,32.50
2022-12-01T00:12:38.004Z,25.00
2022-12-01T00:13:08.565Z,29.90
2022-12-01T00:13:39.129Z,28.00
2022-12-01T00:14:09.664Z,29.20
2022-12-01T00:14:40.244Z,28.80
2022-12-01T00:15:10.816Z,31.30
2022-12-01T00:15:41.397Z,29.60
2022-12-01T00:16:12.008Z,29.10
2022-12-01T00:16:42.617Z,30.90
2022-12-01T00:17:13.179Z,28.40
2022-12-01T00:17:43.740Z,31.10
2022-12-01T00:18:14.311Z,29.40
2022-12-01T00:18:44.892Z,27.10
2022-12-01T00:19:15.480Z,28.50
2022-12-01T00:19:46.400Z,26.60
2022-12-01T00:20:16.594Z,29.30
2022-12-01T00:20:47.163Z,29.50
2022-12-01T00:21:17.769Z,31.50
2022-12-01T00:21:48.335Z,30.60
2022-12-01T00:22:18.898Z,28.50
2022-12-01T00:22:49.448Z,27.10
2022-12-01T00:23:19.974Z,30.00
2022-12-01T00:23:50.519Z,30.60
2022-12-01T00:24:21.088Z,28.20
2022-12-01T00:24:51.677Z,27.80
2022-12-01T00:25:22.250Z,25.50
2022-12-01T00:25:52.828Z,31.20
2022-12-01T00:26:23.397Z,30.70
2022-12-01T00:26:54.031Z,30.20
2022-12-01T00:27:24.569Z,25.20
2022-12-01T00:27:55.190Z,28.80
2022-12-01T00:28:25.734Z,26.70
2022-12-01T00:28:56.306Z,30.90
2022-12-01T00:29:26.872Z,30.00
2022-12-01T00:29:57.447Z,31.40
2022-12-01T00:30:28.033Z,32.60
2022-12-01T00:30:58.594Z,26.60
2022-12-01T00:31:29.232Z,31.50
2022-12-01T00:31:59.871Z,28.50
2022-12-01T00:32:30.461Z,25.90
2022-12-01T00:33:01.022Z,25.50
2022-12-01T00:33:31.578Z,33.20
2022-12-01T00:34:05.625Z,31.00
2022-12-01T00:34:32.959Z,25.90
2022-12-01T00:35:03.526Z,28.50
2022-12-01T00:35:34.094Z,25.00
2022-12-01T00:36:04.684Z,28.70
2022-12-01T00:36:35.251Z,29.10
2022-12-01T00:37:05.817Z,32.10
2022-12-01T00:37:36.402Z,34.30
2022-12-01T00:38:06.975Z,26.80
2022-12-01T00:38:37.526Z,29.30
2022-12-01T00:39:08.131Z,32.50
2022-12-01T00:39:38.689Z,29.90
2022-12-01T00:40:09.268Z,31.30
2022-12-01T00:40:39.846Z,31.00
2022-12-01T00:41:10.410Z,31.60
2022-12-01T00:41:40.961Z,27.00
2022-12-01T00:42:13.455Z,31.80
2022-12-01T00:42:42.126Z,29.30
2022-12-01T00:43:13.121Z,33.70
2022-12-01T00:43:43.654Z,28.70
2022-12-01T00:44:14.227Z,30.30
2022-12-01T00:44:44.790Z,30.60
2022-12-01T00:45:15.362Z,30.40
2022-12-01T00:45:46.007Z,28.70
2022-12-01T00:46:16.683Z,29.60
2022-12-01T00:46:47.303Z,29.40
2022-12-01T00:47:17.898Z,28.70
2022-12-01T00:47:48.436Z,28.40
2022-12-01T00:48:19.005Z,28.40
2022-12-01T00:48:49.537Z,32.00
2022-12-01T00:49:20.127Z,29.60
2022-12-01T00:49:50.996Z,28.30
2022-12-01T00:50:21.635Z,23.00
2022-12-01T00:50:52.185Z,27.90
2022-12-01T00:51:22.758Z,31.70
2022-12-01T00:51:53.297Z,32.70
2022-12-01T00:52:23.854Z,29.20
2022-12-01T00:52:54.393Z,29.80
2022-12-01T00:53:24.982Z,29.90
2022-12-01T00:53:55.552Z,27.20
2022-12-01T00:54:26.109Z,31.00
2022-12-01T00:54:56.680Z,23.80
2022-12-01T00:55:27.254Z,24.10
2022-12-01T00:55:57.824Z,26.80
2022-12-01T00:56:28.396Z,27.20
2022-12-01T00:56:59.022Z,27.90
2022-12-01T00:57:29.547Z,27.60
2022-12-01T00:58:00.094Z,27.60
2022-12-01T00:58:30.674Z,27.50
2022-12-01T00:59:01.209Z,28.00
2022-12-01T00:59:31.782Z,28.00
2022-12-01T01:00:02.335Z,26.40
2022-12-01T01:00:32.922Z,26.30
2022-12-01T01:01:03.662Z,29.20
2022-12-01T01:01:34.320Z,29.40
2022-12-01T01:02:04.988Z,25.50
2022-12-01T01:02:35.574Z,31.30
2022-12-01T01:03:06.119Z,32.00
2022-12-01T01:03:36.694Z,25.30
2022-12-01T01:04:07.284Z,32.40
2022-12-01T01:04:37.843Z,24.00
2022-12-01T01:05:08.540Z,27.20
2022-12-01T01:05:39.094Z,32.40
2022-12-01T01:06:09.665Z,27.40
2022-12-01T01:06:40.231Z,31.60
2022-12-01T01:07:10.791Z,31.90
2022-12-01T01:07:42.444Z,28.50
2022-12-01T01:08:11.987Z,28.70
2022-12-01T01:08:42.561Z,34.20
2022-12-01T01:09:13.139Z,27.70
2022-12-01T01:09:43.745Z,23.90
2022-12-01T01:10:14.325Z,27.30
2022-12-01T01:10:44.896Z,33.40
2022-12-01T01:11:15.432Z,35.90
2022-12-01T01:11:45.975Z,31.70
2022-12-01T01:12:16.555Z,30.50
2022-12-01T01:12:47.120Z,27.30
2022-12-01T01:13:17.694Z,26.40
2022-12-01T01:13:48.304Z,27.80
2022-12-01T01:14:18.833Z,31.50
2022-12-01T01:14:49.400Z,28.80
2022-12-01T01:15:19.986Z,26.70
2022-12-01T01:15:50.569Z,31.20
2022-12-01T01:16:21.168Z,26.00
2022-12-01T01:16:51.843Z,29.10
2022-12-01T01:17:22.418Z,29.50
2022-12-01T01:17:52.983Z,27.40
2022-12-01T01:18:23.562Z,29.30
2022-12-01T01:18:54.156Z,31.10
2022-12-01T01:19:24.726Z,24.80
2022-12-01T01:19:55.372Z,25.90
2022-12-01T01:20:25.912Z,26.40
2022-12-01T01:20:56.449Z,29.90
2022-12-01T01:21:27.020Z,28.10
2022-12-01T01:21:57.606Z,27.60
2022-12-01T01:22:28.174Z,30.70
2022-12-01T01:22:58.707Z,27.80
2022-12-01T01:23:29.272Z,26.70
2022-12-01T01:23:59.843Z,27.90
2022-12-01T01:24:30.391Z,29.50
2022-12-01T01:25:00.972Z,27.30
2022-12-01T01:25:31.533Z,24.70
2022-12-01T01:26:02.089Z,29.10
2022-12-01T01:26:32.631Z,27.40
2022-12-01T01:27:03.182Z,27.80
2022-12-01T01:27:33.761Z,26.80
2022-12-01T01:28:04.357Z,26.00
2022-12-01T01:28:34.903Z,31.30
2022-12-01T01:29:05.512Z,27.20
2022-12-01T01:29:36.062Z,30.50
2022-12-01T01:30:06.636Z,28.30
2022-12-01T01:30:37.242Z,30.20
2022-12-01T01:31:07.833Z,28.50
2022-12-01T01:31:38.371Z,27.10
2022-12-01T01:32:08.927Z,26.00
2022-12-01T01:32:39.513Z,29.90
2022-12-01T01:33:10.074Z,34.20
2022-12-01T01:34:10.466Z,27.20
2022-12-01T01:34:42.063Z,30.20
2022-12-01T01:35:12.686Z,31.60
2022-12-01T01:35:43.226Z,31.60
2022-12-01T01:36:13.772Z,29.40
2022-12-01T01:36:44.327Z,26.80
2022-12-01T01:37:14.917Z,25.80
2022-12-01T01:37:45.494Z,30.90
2022-12-01T01:38:16.097Z,29.40
2022-12-01T01:38:46.645Z,33.40
2022-12-01T01:39:17.234Z,29.90
2022-12-01T01:39:48.042Z,31.70
2022-12-01T01:40:18.754Z,24.40
2022-12-01T01:40:49.294Z,29.10
2022-12-01T01:41:19.863Z,27.00
2022-12-01T01:41:50.424Z,26.90
2022-12-01T01:42:21.003Z,27.90
2022-12-01T01:42:51.601Z,28.20
2022-12-01T01:43:22.184Z,33.60
2022-12-01T01:43:52.756Z,27.50
2022-12-01T01:44:23.362Z,27.60
2022-12-01T01:44:53.895Z,28.30
2022-12-01T01:45:24.486Z,27.80
2022-12-01T01:45:55.097Z,30.00
2022-12-01T01:46:25.725Z,27.40
2022-12-01T01:46:56.301Z,29.50
2022-12-01T01:47:26.866Z,29.70
2022-12-01T01:47:57.409Z,27.30
2022-12-01T01:48:27.979Z,27.50
2022-12-01T01:48:58.566Z,29.30
2022-12-01T01:49:29.139Z,30.90
2022-12-01T01:49:59.691Z,26.80
2022-12-01T01:50:30.274Z,30.60
2022-12-01T01:51:00.851Z,31.30
2022-12-01T01:51:31.398Z,31.60
2022-12-01T01:52:01.982Z,31.20
2022-12-01T01:52:32.556Z,28.40
2022-12-01T01:53:03.118Z,28.00
2022-12-01T01:53:33.697Z,33.60
2022-12-01T01:54:04.275Z,34.60
2022-12-01T01:54:34.825Z,27.90
2022-12-01T01:55:05.389Z,29.30
2022-12-01T01:55:35.971Z,28.10
2022-12-01T01:56:06.541Z,29.10
2022-12-01T01:56:37.099Z,31.00
2022-12-01T01:57:07.660Z,24.20
2022-12-01T01:57:38.237Z,28.60
2022-12-01T01:58:08.818Z,28.40
2022-12-01T01:58:39.422Z,31.50
2022-12-01T01:59:10.002Z,34.30
2022-12-01T01:59:40.577Z,27.10
2022-12-01T02:00:11.110Z,31.70
2022-12-01T02:00:41.683Z,29.60
2022-12-01T02:01:12.300Z,27.50
2022-12-01T02:01:42.900Z,30.30
2022-12-01T02:02:13.551Z,30.70
2022-12-01T02:02:44.226Z,33.60
2022-12-01T02:03:14.842Z,30.30
2022-12-01T02:03:45.428Z,28.10
2022-12-01T02:04:15.961Z,27.00
2022-12-01T02:04:46.545Z,31.90
2022-12-01T02:05:17.093Z,32.60
2022-12-01T02:05:47.632Z,28.00
2022-12-01T02:06:18.200Z,27.90
2022-12-01T02:06:48.776Z,29.10
2022-12-01T02:07:19.491Z,30.40
2022-12-01T02:07:50.157Z,31.20
2022-12-01T02:08:20.745Z,24.60
2022-12-01T02:08:51.337Z,29.60
2022-12-01T02:09:21.879Z,29.20
2022-12-01T02:09:52.455Z,27.30
2022-12-01T02:10:22.995Z,31.20
2022-12-01T02:10:53.544Z,31.20
2022-12-01T02:11:24.115Z,33.10
2022-12-01T02:11:54.686Z,33.00
2022-12-01T02:12:25.237Z,35.00
2022-12-01T02:12:55.787Z,27.90
2022-12-01T02:13:26.359Z,28.30
2022-12-01T02:13:56.908Z,30.90
2022-12-01T02:14:27.472Z,25.80
2022-12-01T02:14:58.106Z,28.50
2022-12-01T02:15:28.662Z,31.50
2022-12-01T02:15:59.250Z,29.40
2022-12-01T02:16:29.833Z,27.70
2022-12-01T02:17:00.563Z,30.70
2022-12-01T02:17:31.143Z,29.80
2022-12-01T02:18:01.736Z,27.80
2022-12-01T02:18:32.334Z,28.70
2022-12-01T02:19:02.898Z,29.30
2022-12-01T02:19:33.469Z,28.70
2022-12-01T02:20:04.016Z,26.80
2022-12-01T02:20:34.601Z,31.00
2022-12-01T02:21:05.165Z,27.00
2022-12-01T02:21:35.745Z,27.60
2022-12-01T02:22:06.284Z,28.90
2022-12-01T02:22:36.885Z,27.90
2022-12-01T02:23:07.454Z,27.40
2022-12-01T02:23:38.031Z,31.20
2022-12-01T02:24:08.646Z,31.30
2022-12-01T02:24:39.209Z,27.80
2022-12-01T02:25:09.761Z,28.20
2022-12-01T02:25:40.298Z,28.80
2022-12-01T02:26:10.888Z,28.50
2022-12-01T02:26:41.453Z,32.00
2022-12-01T02:27:12.033Z,27.30
2022-12-01T02:27:42.620Z,30.70
2022-12-01T02:28:13.157Z,27.80
2022-12-01T02:28:43.731Z,29.90
2022-12-01T02:29:14.327Z,29.70
2022-12-01T02:29:44.879Z,30.10
2022-12-01T02:30:15.464Z,32.90
2022-12-01T02:30:46.053Z,28.30
2022-12-01T02:31:16.668Z,30.60
2022-12-01T02:31:47.249Z,27.40
2022-12-01T02:32:17.839Z,28.60
2022-12-01T02:32:48.411Z,25.60
2022-12-01T02:33:18.968Z,27.10
2022-12-01T02:33:49.528Z,27.70
2022-12-01T02:34:20.085Z,26.70
2022-12-01T02:34:50.644Z,26.80
2022-12-01T02:35:21.222Z,30.40
2022-12-01T02:35:51.756Z,29.40
2022-12-01T02:36:22.303Z,27.50
2022-12-01T02:36:52.887Z,25.60
2022-12-01T02:37:23.454Z,29.20
2022-12-01T02:37:54.022Z,30.60
2022-12-01T02:38:24.584Z,29.80
2022-12-01T02:38:55.160Z,29.30
2022-12-01T02:39:25.689Z,28.10
2022-12-01T02:39:56.250Z,34.60
2022-12-01T02:40:26.797Z,32.90
2022-12-01T02:40:57.399Z,27.60
2022-12-01T02:41:27.966Z,27.00
2022-12-01T02:41:58.513Z,28.70
2022-12-01T02:42:29.071Z,32.20
2022-12-01T02:42:59.667Z,33.00
2022-12-01T02:43:30.249Z,28.60
2022-12-01T02:44:00.826Z,31.50
2022-12-01T02:44:31.377Z,33.10
2022-12-01T02:45:01.946Z,28.90
2022-12-01T02:45:32.558Z,32.60
2022-12-01T02:46:03.111Z,27.80
2022-12-01T02:46:33.777Z,37.50
2022-12-01T02:47:04.347Z,31.10
2022-12-01T02:47:34.890Z,28.70
2022-12-01T02:48:05.480Z,31.20
2022-12-01T02:48:36.024Z,27.60
2022-12-01T02:49:06.583Z,38.50
2022-12-01T02:49:37.154Z,26.10
2022-12-01T02:50:07.698Z,28.90
2022-12-01T02:50:38.264Z,30.10
2022-12-01T02:51:08.821Z,35.90
2022-12-01T02:51:39.403Z,26.70
2022-12-01T02:52:09.987Z,31.10
2022-12-01T02:52:40.552Z,35.80
2022-12-01T02:53:11.146Z,29.80
2022-12-01T02:53:41.730Z,33.00
2022-12-01T02:54:12.301Z,24.70
2022-12-01T02:54:42.880Z,31.90
2022-12-01T02:55:13.440Z,33.90
2022-12-01T02:55:43.986Z,35.90
2022-12-01T02:56:14.532Z,34.50
2022-12-01T02:56:45.094Z,31.70
2022-12-01T02:57:15.656Z,29.20
2022-12-01T02:57:46.231Z,32.60
2022-12-01T02:58:16.769Z,27.70
2022-12-01T02:58:47.332Z,33.60
2022-12-01T02:59:17.905Z,33.80
2022-12-01T02:59:48.838Z,34.00
2022-12-01T03:00:19.010Z,31.60
2022-12-01T03:00:49.622Z,31.00
2022-12-01T03:01:20.279Z,34.20
2022-12-01T03:01:50.963Z,31.40
2022-12-01T03:02:21.583Z,28.30
2022-12-01T03:02:52.254Z,33.30
2022-12-01T03:03:22.812Z,35.30
2022-12-01T03:03:53.359Z,31.00
2022-12-01T03:04:23.931Z,36.20
2022-12-01T03:04:54.499Z,33.20
2022-12-01T03:05:25.086Z,30.80
2022-12-01T03:05:55.677Z,31.00
2022-12-01T03:06:26.219Z,33.90
2022-12-01T03:06:56.796Z,32.20
2022-12-01T03:07:27.454Z,32.30
2022-12-01T03:07:58.044Z,35.70
2022-12-01T03:08:28.610Z,31.30
2022-12-01T03:08:59.154Z,35.40
2022-12-01T03:09:29.717Z,33.40
2022-12-01T03:10:00.298Z,28.00
2022-12-01T03:10:30.878Z,32.60
2022-12-01T03:11:01.455Z,35.70
2022-12-01T03:11:32.023Z,33.90
2022-12-01T03:12:02.562Z,31.90
2022-12-01T03:12:33.125Z,29.80
2022-12-01T03:13:03.688Z,33.70
2022-12-01T03:13:34.253Z,32.50
2022-12-01T03:14:04.823Z,29.50
2022-12-01T03:14:35.399Z,29.30
2022-12-01T03:15:05.933Z,30.00
2022-12-01T03:15:36.584Z,33.50
2022-12-01T03:16:07.284Z,33.80
2022-12-01T03:16:37.905Z,31.10
2022-12-01T03:17:08.458Z,33.20
2022-12-01T03:17:39.029Z,32.10
2022-12-01T03:18:09.584Z,32.40
2022-12-01T03:18:40.110Z,34.50
2022-12-01T03:19:10.666Z,31.20
2022-12-01T03:19:41.329Z,32.50
2022-12-01T03:20:11.903Z,30.30
2022-12-01T03:20:42.495Z,34.70
2022-12-01T03:21:13.060Z,30.70
2022-12-01T03:21:43.593Z,30.90
2022-12-01T03:22:14.157Z,32.10
2022-12-01T03:22:44.726Z,29.80
2022-12-01T03:23:15.315Z,31.30
2022-12-01T03:23:45.933Z,33.30
2022-12-01T03:24:16.487Z,34.20
2022-12-01T03:24:47.031Z,34.50
2022-12-01T03:25:17.579Z,29.90
2022-12-01T03:25:48.108Z,35.10
2022-12-01T03:26:18.704Z,32.20
2022-12-01T03:26:49.292Z,33.80
2022-12-01T03:27:19.861Z,31.00
2022-12-01T03:28:19.273Z,34.60
2022-12-01T03:28:22.522Z,34.00
2022-12-01T03:28:51.797Z,32.90
2022-12-01T03:29:22.376Z,29.70
2022-12-01T03:29:52.964Z,32.50
2022-12-01T03:30:23.535Z,33.70
2022-12-01T03:30:54.151Z,30.20
2022-12-01T03:31:24.803Z,28.40
2022-12-01T03:31:55.354Z,29.90
2022-12-01T03:32:25.928Z,30.90
2022-12-01T03:32:56.495Z,34.40
2022-12-01T03:33:27.093Z,32.70
2022-12-01T03:33:57.975Z,35.20
2022-12-01T03:34:28.518Z,32.20
2022-12-01T03:34:59.064Z,29.10
2022-12-01T03:35:29.630Z,34.20
2022-12-01T03:36:00.210Z,35.60
2022-12-01T03:36:30.781Z,30.00
2022-12-01T03:37:01.328Z,33.50
2022-12-01T03:37:31.899Z,32.40
2022-12-01T03:38:02.449Z,31.80
2022-12-01T03:38:32.985Z,30.70
2022-12-01T03:39:03.567Z,34.30
2022-12-01T03:39:34.159Z,33.90
2022-12-01T03:40:04.703Z,32.10
2022-12-01T03:40:35.292Z,36.90
2022-12-01T03:41:05.877Z,34.40
2022-12-01T03:41:36.435Z,38.60
2022-12-01T03:42:07.004Z,32.10
2022-12-01T03:42:37.627Z,35.30
2022-12-01T03:43:08.179Z,37.90
2022-12-01T03:43:38.741Z,32.20
2022-12-01T03:44:09.298Z,37.20
2022-12-01T03:44:39.882Z,33.90
2022-12-01T03:45:10.453Z,36.20
2022-12-01T03:45:41.040Z,35.40
2022-12-01T03:46:11.636Z,33.80
2022-12-01T03:46:42.348Z,31.50
2022-12-01T03:47:12.903Z,33.90
2022-12-01T03:47:43.485Z,36.60
2022-12-01T03:48:14.073Z,30.10
2022-12-01T03:48:44.656Z,32.80
2022-12-01T03:49:15.246Z,32.80
2022-12-01T03:49:45.910Z,29.40
2022-12-01T03:50:16.539Z,30.80
2022-12-01T03:50:47.096Z,31.20
2022-12-01T03:51:17.674Z,37.90
2022-12-01T03:51:48.267Z,30.50
2022-12-01T03:52:18.831Z,34.70
2022-12-01T03:52:49.390Z,32.40
2022-12-01T03:53:19.977Z,32.10
2022-12-01T03:53:50.555Z,30.60
2022-12-01T03:54:21.101Z,35.00
2022-12-01T03:54:51.677Z,31.00
2022-12-01T03:55:22.273Z,30.30
2022-12-01T03:55:52.889Z,36.10
2022-12-01T03:56:23.467Z,34.70
2022-12-01T03:56:54.008Z,34.90
2022-12-01T03:57:24.571Z,28.20
2022-12-01T03:57:55.159Z,35.30
2022-12-01T03:58:25.735Z,31.10
2022-12-01T03:58:56.300Z,32.60
2022-12-01T03:59:26.844Z,30.00
2022-12-01T03:59:57.492Z,33.50
2022-12-01T04:00:28.025Z,33.30
2022-12-01T04:00:58.589Z,32.30
2022-12-01T04:01:29.259Z,28.50
2022-12-01T04:01:59.948Z,40.80
2022-12-01T04:02:30.572Z,31.10
2022-12-01T04:03:01.210Z,34.00
2022-12-01T04:03:31.775Z,36.10
2022-12-01T04:04:02.379Z,40.30
2022-12-01T04:04:32.953Z,33.80
2022-12-01T04:05:03.518Z,38.40
2022-12-01T04:05:34.097Z,42.00
2022-12-01T04:06:04.703Z,36.80
2022-12-01T04:06:35.260Z,34.20
2022-12-01T04:07:05.805Z,36.80
2022-12-01T04:07:36.437Z,33.60
2022-12-01T04:08:07.088Z,36.90
2022-12-01T04:08:37.687Z,38.80
2022-12-01T04:09:08.260Z,33.00
2022-12-01T04:09:38.818Z,41.40
2022-12-01T04:10:09.351Z,33.10
2022-12-01T04:10:39.935Z,35.70
2022-12-01T04:11:10.465Z,34.30
2022-12-01T04:11:41.010Z,37.60
2022-12-01T04:12:11.582Z,40.60
2022-12-01T04:12:42.147Z,38.30
2022-12-01T04:13:12.731Z,36.10
2022-12-01T04:13:43.287Z,40.10
2022-12-01T04:14:13.829Z,35.10
2022-12-01T04:14:44.397Z,36.50
2022-12-01T04:15:14.982Z,36.90
2022-12-01T04:15:45.662Z,37.70
2022-12-01T04:16:16.259Z,40.00
2022-12-01T04:16:46.836Z,33.30
2022-12-01T04:17:17.429Z,37.80
2022-12-01T04:17:47.984Z,36.40
2022-12-01T04:18:18.564Z,39.90
2022-12-01T04:18:49.132Z,38.10
2022-12-01T04:19:19.696Z,38.00
2022-12-01T04:19:50.619Z,40.10
2022-12-01T04:20:21.276Z,37.10
2022-12-01T04:20:51.876Z,38.10
2022-12-01T04:21:22.445Z,37.70
2022-12-01T04:21:53.028Z,39.40
2022-12-01T04:22:23.600Z,37.40
2022-12-01T04:22:54.174Z,40.30
2022-12-01T04:23:24.754Z,41.60
2022-12-01T04:23:55.340Z,41.10
2022-12-01T04:24:25.871Z,39.90
2022-12-01T04:24:56.461Z,39.50
2022-12-01T04:25:27.036Z,41.00
2022-12-01T04:25:57.633Z,37.30
2022-12-01T04:26:28.201Z,39.40
2022-12-01T04:26:58.780Z,41.10
2022-12-01T04:27:29.363Z,35.30
2022-12-01T04:27:59.925Z,37.10
2022-12-01T04:28:30.482Z,38.30
2022-12-01T04:29:01.069Z,42.30
2022-12-01T04:29:31.630Z,35.80
2022-12-01T04:30:02.184Z,39.00
2022-12-01T04:30:32.772Z,37.90
2022-12-01T04:31:03.396Z,34.90
2022-12-01T04:31:34.035Z,39.90
2022-12-01T04:32:04.593Z,39.80
2022-12-01T04:32:35.206Z,38.50
2022-12-01T04:33:05.757Z,39.20
2022-12-01T04:33:36.331Z,41.10
2022-12-01T04:34:06.905Z,35.70
2022-12-01T04:34:37.474Z,46.30
2022-12-01T04:35:08.060Z,40.30
2022-12-01T04:35:38.619Z,40.20
2022-12-01T04:36:09.176Z,37.90
2022-12-01T04:36:39.755Z,40.50
2022-12-01T04:37:10.312Z,38.40
2022-12-01T04:37:40.889Z,50.10
2022-12-01T04:38:11.473Z,82.50
2022-12-01T04:38:42.000Z,127.30
2022-12-01T04:39:12.553Z,126.20
2022-12-01T04:39:43.130Z,135.00
2022-12-01T04:40:13.687Z,74.20
2022-12-01T04:40:44.249Z,53.40
2022-12-01T04:41:14.826Z,54.50
2022-12-01T04:41:45.402Z,43.40
2022-12-01T04:42:15.967Z,46.40
2022-12-01T04:42:46.535Z,49.00
2022-12-01T04:43:17.094Z,44.50
2022-12-01T04:43:47.653Z,37.80
2022-12-01T04:44:18.288Z,90.50
2022-12-01T04:44:48.836Z,183.30
2022-12-01T04:45:19.421Z,207.60
2022-12-01T04:45:50.000Z,209.70
2022-12-01T04:46:20.626Z,207.10
2022-12-01T04:46:51.396Z,189.20
2022-12-01T04:47:22.036Z,135.70
2022-12-01T04:47:52.632Z,74.20
2022-12-01T04:48:23.171Z,42.40
2022-12-01T04:48:53.761Z,58.00
2022-12-01T04:49:24.351Z,61.30
2022-12-01T04:49:54.879Z,158.00
2022-12-01T04:50:25.467Z,107.40
2022-12-01T04:50:56.038Z,51.30
2022-12-01T04:51:26.604Z,43.80
2022-12-01T04:51:57.141Z,40.70
2022-12-01T04:52:33.592Z,56.80
2022-12-01T04:52:58.489Z,131.90
2022-12-01T04:53:29.095Z,150.60
2022-12-01T04:53:59.643Z,98.20
2022-12-01T04:54:30.201Z,114.00
2022-12-01T04:55:00.799Z,96.70
2022-12-01T04:55:31.367Z,96.90
2022-12-01T04:56:01.932Z,125.00
2022-12-01T04:56:32.490Z,110.40
2022-12-01T04:57:03.121Z,75.50
2022-12-01T04:57:33.651Z,76.10
2022-12-01T04:58:04.210Z,116.60
2022-12-01T04:58:34.786Z,149.20
2022-12-01T04:59:05.365Z,113.30
2022-12-01T04:59:35.917Z,177.20
2022-12-01T05:00:06.481Z,234.20
2022-12-01T05:00:37.139Z,263.50
2022-12-01T05:01:07.816Z,278.90
2022-12-01T05:01:38.573Z,258.00
2022-12-01T05:02:09.276Z,253.00
2022-12-01T05:02:39.833Z,190.90
2022-12-01T05:03:14.827Z,131.60
2022-12-01T05:03:41.083Z,125.30
2022-12-01T05:04:11.662Z,106.40
2022-12-01T05:04:42.235Z,95.10
2022-12-01T05:05:12.805Z,94.40
2022-12-01T05:05:43.360Z,82.70
2022-12-01T05:06:13.907Z,61.80
2022-12-01T05:06:44.500Z,54.20
2022-12-01T05:07:15.071Z,49.00
2022-12-01T05:07:45.706Z,47.60
2022-12-01T05:08:16.286Z,43.90
2022-12-01T05:08:46.840Z,48.70
2022-12-01T05:09:17.986Z,45.10
2022-12-01T05:09:48.643Z,41.60
2022-12-01T05:10:18.811Z,39.60
2022-12-01T05:10:49.379Z,46.30
2022-12-01T05:11:19.929Z,39.40
2022-12-01T05:11:50.524Z,39.60
2022-12-01T05:12:21.090Z,37.90
2022-12-01T05:12:51.627Z,37.60
2022-12-01T05:13:22.233Z,41.80
2022-12-01T05:13:52.788Z,42.70
2022-12-01T05:14:23.368Z,38.20
2022-12-01T05:14:53.928Z,36.70
2022-12-01T05:15:24.523Z,41.80
2022-12-01T05:15:55.134Z,40.70
2022-12-01T05:16:25.792Z,36.90
2022-12-01T05:16:56.380Z,34.40
2022-12-01T05:17:26.939Z,36.70
2022-12-01T05:17:57.491Z,38.30
2022-12-01T05:18:28.145Z,34.60
2022-12-01T05:18:58.765Z,36.80
2022-12-01T05:19:29.380Z,36.40
2022-12-01T05:19:59.949Z,40.40
2022-12-01T05:20:30.525Z,38.70
2022-12-01T05:21:01.065Z,35.00
2022-12-01T05:21:31.651Z,36.30
2022-12-01T05:22:02.201Z,39.30
2022-12-01T05:23:03.734Z,37.90
2022-12-01T05:23:06.093Z,35.40
2022-12-01T05:23:34.288Z,39.30
2022-12-01T05:24:04.863Z,40.40
2022-12-01T05:24:35.427Z,35.10
2022-12-01T05:25:06.007Z,35.20
2022-12-01T05:25:36.540Z,38.20
2022-12-01T05:26:07.096Z,37.50
2022-12-01T05:26:37.677Z,35.40
2022-12-01T05:27:08.247Z,38.10
2022-12-01T05:27:38.826Z,36.60
2022-12-01T05:28:09.363Z,37.30
2022-12-01T05:28:39.911Z,37.90
2022-12-01T05:29:10.498Z,31.20
2022-12-01T05:29:41.047Z,34.40
2022-12-01T05:30:11.641Z,36.40
2022-12-01T05:30:42.212Z,37.40
2022-12-01T05:31:12.867Z,38.70
2022-12-01T05:31:43.501Z,38.20
2022-12-01T05:32:14.061Z,36.20
2022-12-01T05:32:45.707Z,41.30
2022-12-01T05:33:15.203Z,33.10
2022-12-01T05:33:46.825Z,35.80
2022-12-01T05:34:16.332Z,36.80
2022-12-01T05:34:46.885Z,34.80
2022-12-01T05:35:17.456Z,38.00
2022-12-01T05:35:48.051Z,33.70
2022-12-01T05:36:18.637Z,36.40
2022-12-01T05:36:49.205Z,37.30
2022-12-01T05:37:19.787Z,35.10
2022-12-01T05:37:50.453Z,34.50
2022-12-01T05:38:21.082Z,39.80
2022-12-01T05:38:51.649Z,30.20
2022-12-01T05:39:22.187Z,32.60
2022-12-01T05:39:52.752Z,35.70
2022-12-01T05:40:23.337Z,36.40
2022-12-01T05:40:53.916Z,32.00
2022-12-01T05:41:24.460Z,35.50
2022-12-01T05:41:54.998Z,32.60
2022-12-01T05:42:25.546Z,33.30
2022-12-01T05:42:56.156Z,33.40
2022-12-01T05:43:29.475Z,30.00
2022-12-01T05:43:57.693Z,33.20
2022-12-01T05:44:28.278Z,33.80
2022-12-01T05:45:01.229Z,30.50
2022-12-01T05:45:29.725Z,31.10
2022-12-01T05:46:00.370Z,32.90
2022-12-01T05:46:30.963Z,32.50
2022-12-01T05:47:01.543Z,32.70
2022-12-01T05:47:32.132Z,31.60
2022-12-01T05:48:02.714Z,35.60
2022-12-01T05:48:33.278Z,34.50
2022-12-01T05:49:03.873Z,37.00
2022-12-01T05:49:34.428Z,41.70
2022-12-01T05:50:06.009Z,35.90
2022-12-01T05:50:35.706Z,37.90
2022-12-01T05:51:06.249Z,43.60
2022-12-01T05:51:36.840Z,37.10
2022-12-01T05:52:07.402Z,38.90
2022-12-01T05:52:37.953Z,31.80
2022-12-01T05:53:08.519Z,31.50
2022-12-01T05:53:39.079Z,34.00
2022-12-01T05:54:09.640Z,36.30
2022-12-01T05:54:40.206Z,34.10
2022-12-01T05:55:10.761Z,35.00
2022-12-01T05:55:41.314Z,35.80
2022-12-01T05:56:11.892Z,32.20
2022-12-01T05:56:42.516Z,36.50
2022-12-01T05:57:13.084Z,31.10
2022-12-01T05:57:43.646Z,36.80
2022-12-01T05:58:14.212Z,33.30
2022-12-01T05:58:44.757Z,40.30
2022-12-01T05:59:15.321Z,41.10
2022-12-01T05:59:45.915Z,32.70
2022-12-01T06:00:16.466Z,35.00
2022-12-01T06:00:47.015Z,35.70
2022-12-01T06:01:17.589Z,33.60
2022-12-01T06:01:48.239Z,35.40
2022-12-01T06:02:18.896Z,35.30
2022-12-01T06:02:49.460Z,34.60
2022-12-01T06:03:20.037Z,33.90
2022-12-01T06:03:50.733Z,35.70
2022-12-01T06:04:21.347Z,32.60
2022-12-01T06:04:51.899Z,34.60
2022-12-01T06:05:22.455Z,31.60
2022-12-01T06:05:53.006Z,31.50
2022-12-01T06:06:23.581Z,36.80
2022-12-01T06:06:54.172Z,29.80
2022-12-01T06:07:24.784Z,32.70
2022-12-01T06:07:55.367Z,36.10
2022-12-01T06:08:25.941Z,39.60
2022-12-01T06:08:56.524Z,34.70
2022-12-01T06:09:27.097Z,35.30
2022-12-01T06:09:57.680Z,32.80
2022-12-01T06:10:28.230Z,32.40
2022-12-01T06:10:58.771Z,30.60
2022-12-01T06:11:29.361Z,35.50
2022-12-01T06:11:59.897Z,30.80
2022-12-01T06:12:30.461Z,38.50
2022-12-01T06:13:01.043Z,36.00
2022-12-01T06:13:31.596Z,35.90
2022-12-01T06:14:02.186Z,30.00
2022-12-01T06:14:32.771Z,32.10
2022-12-01T06:15:03.369Z,33.50
2022-12-01T06:15:33.951Z,35.60
2022-12-01T06:16:04.514Z,36.60
2022-12-01T06:16:35.160Z,33.90
2022-12-01T06:17:05.714Z,31.70
2022-12-01T06:17:40.156Z,28.30
2022-12-01T06:18:06.967Z,34.90
2022-12-01T06:18:37.536Z,29.50
2022-12-01T06:19:08.113Z,28.50
2022-12-01T06:19:38.702Z,28.40
2022-12-01T06:20:09.245Z,31.90
2022-12-01T06:20:39.816Z,32.90
2022-12-01T06:21:10.400Z,29.50
2022-12-01T06:21:40.964Z,31.10
2022-12-01T06:22:11.542Z,34.00
2022-12-01T06:22:42.111Z,31.60
2022-12-01T06:23:12.683Z,34.60
2022-12-01T06:23:43.282Z,34.00
2022-12-01T06:24:13.844Z,30.50
2022-12-01T06:24:44.415Z,32.60
2022-12-01T06:25:15.003Z,34.70
2022-12-01T06:25:45.569Z,29.10
2022-12-01T06:26:16.145Z,31.20
2022-12-01T06:26:46.712Z,29.00
2022-12-01T06:27:17.274Z,31.50
2022-12-01T06:27:47.840Z,28.10
2022-12-01T06:28:18.376Z,30.90
2022-12-01T06:28:48.978Z,31.60
2022-12-01T06:29:19.526Z,33.90
2022-12-01T06:29:50.510Z,34.20
2022-12-01T06:30:20.696Z,29.00
2022-12-01T06:30:51.259Z,30.10
2022-12-01T06:31:21.823Z,32.00
2022-12-01T06:31:52.365Z,33.20
2022-12-01T06:32:22.883Z,31.10
2022-12-01T06:32:53.417Z,33.60
2022-12-01T06:33:24.451Z,36.20
2022-12-01T06:33:54.953Z,34.00